Flight Track Log - Related Links

Times and Time Zones

All times are in EDT time to prevent confusion due to time zone crossing. See the BYA373 flight status page for this flight to view local times or setup timezone preferences in your user account.

Time Position Orientation Groundspeed Altitude Reporting Facility
EDT Latitude Longitude Course Direction KTS MPH feet Rate Location/Type
Tue 01:50:58 AM 27.5944 -99.3942 57° Northeast 214 246 4,300  Level Houston Center
Tue 01:51:58 AM 27.6453 -99.3669 25° Northeast 207 238 5,600 1,250 Climbing Houston Center
Tue 01:53:22 AM 27.7200 -99.3300 24° Northeast 207 238 7,300 1,250 Climbing Houston Center
Tue 01:54:22 AM 27.7739 -99.3061 21° North 208 239 8,600 1,091 Climbing Houston Center
Tue 01:55:00 AM 27.8596 -99.1730 41° Northeast  Level Estimated
Tue 01:55:23 AM 27.8231 -99.2756 29° Northeast 204 235 9,500  Level Houston Center
Tue 01:56:00 AM 27.9122 -99.1247 57° Northeast  Level Estimated
Tue 01:56:23 AM 27.8756 -99.2478 25° Northeast 206 237 10,600  Level Houston Center
Tue 01:57:23 AM 27.9278 -99.2189 26° Northeast 205 236 11,500 900 Climbing Houston Center
Tue 01:58:23 AM 27.9819 -99.1917 24° Northeast 211 243 12,400 950 Climbing Houston Center
Tue 01:59:23 AM 28.0364 -99.1597 27° Northeast 217 250 13,400 1,050 Climbing Houston Center
Tue 02:00:23 AM 28.0883 -99.1336 24° Northeast 208 239 14,500 1,000 Climbing Houston Center
Tue 02:01:23 AM 28.1403 -99.1072 24° Northeast 204 235 15,400 843 Climbing Houston Center
Tue 02:02:24 AM 28.1914 -99.0797 25° Northeast 203 234 16,200 694 Climbing Houston Center
Tue 02:03:24 AM 28.2433 -99.0539 24° Northeast 204 235 16,800 650 Climbing Houston Center
Tue 02:04:24 AM 28.2942 -99.0258 26° Northeast 203 234 17,500 600 Climbing Houston Center
Tue 02:05:24 AM 28.3478 -98.9964 26° Northeast 211 243 18,000 550 Climbing Houston Center
Tue 02:06:24 AM 28.4000 -98.9683 25° Northeast 209 241 18,600 650 Climbing Houston Center
Tue 02:07:24 AM 28.4567 -98.9481 17° North 212 244 19,300 600 Climbing Houston Center
Tue 02:08:24 AM 28.5122 -98.9261 19° North 212 244 19,800 446 Climbing Houston Center
Tue 02:09:25 AM 28.5703 -98.9078 16° North 216 249 20,200 446 Climbing Houston Center
Tue 02:10:25 AM 28.6278 -98.8878 17° North 216 249 20,700 350 Climbing Houston Center
Tue 02:11:25 AM 28.6936 -98.8586 21° North 225 259 20,900 200 Climbing Houston Center
Tue 02:12:25 AM 28.7556 -98.8364 17° North 234 269 21,100 50 Climbing Houston Center
Tue 02:13:25 AM 28.8208 -98.8092 20° North 249 287 21,000 -50 Descending Houston Center
Tue 02:14:25 AM 28.8883 -98.7825 19° North 256 295 21,000  Level Houston Center
Tue 02:15:25 AM 28.9569 -98.7606 16° North 256 295 21,000  Level Houston Center
Tue 02:16:26 AM 29.0233 -98.7336 20° North 253 291 21,000  Level Houston Center
Tue 02:17:26 AM 29.0894 -98.7089 18° North 251 289 21,000  Level Houston Center
Tue 02:18:26 AM 29.1539 -98.6819 20° North 247 284 21,000  Level Houston Center
Tue 02:19:26 AM 29.2178 -98.6542 21° North 246 283 21,000  Level Houston Center
Tue 02:20:26 AM 29.2803 -98.6214 25° Northeast 247 284 21,000 -50 Level Houston Center
Tue 02:21:26 AM 29.3361 -98.5744 36° Northeast 249 287 20,900  Descending Houston Center
Tue 02:22:26 AM 29.3850 -98.5183 45° Northeast 249 287 21,000 50 Climbing Houston Center
Tue 02:23:27 AM 29.4206 -98.4517 59° Northeast 247 284 21,000  Level Houston Center
Tue 02:24:27 AM 29.4636 -98.3914 51° Northeast 246 283 21,000 50 Level Houston Center
Tue 02:25:27 AM 29.5119 -98.3358 45° Northeast 247 284 21,100 50 Climbing Houston Center
Tue 02:26:27 AM 29.5658 -98.2897 37° Northeast 245 282 21,100 -50 Level Houston Center
Tue 02:27:27 AM 29.6178 -98.2386 41° Northeast 247 284 21,000 -50 Descending Houston Center
Tue 02:28:27 AM 29.6700 -98.1889 40° Northeast 245 282 21,000  Level Houston Center
Tue 02:29:27 AM 29.7278 -98.1369 38° Northeast 245 282 21,000  Level Houston Center
Tue 02:30:28 AM 29.7814 -98.0869 39° Northeast 246 283 21,000  Level Houston Center
Tue 02:31:28 AM 29.8356 -98.0378 38° Northeast 246 283 21,000  Level Houston Center
Tue 02:32:28 AM 29.8883 -97.9858 40° Northeast 249 287 21,000 50 Level Houston Center
Tue 02:33:28 AM 29.9389 -97.9314 43° Northeast 249 287 21,100  Climbing Houston Center
Tue 02:34:28 AM 29.9953 -97.8856 35° Northeast 248 285 21,000 -50 Descending Houston Center
Tue 02:35:28 AM 30.0481 -97.8342 40° Northeast 248 285 21,000  Level Houston Center
Tue 02:36:28 AM 30.0928 -97.7786 47° Northeast 258 297 21,000 -50 Level Houston Center
Tue 02:37:28 AM 30.1500 -97.7319 35° Northeast 252 290 20,900  Descending Houston Center
Tue 02:38:28 AM 30.2028 -97.6789 41° Northeast 248 285 21,000 50 Climbing Houston Center
Tue 02:39:29 AM 30.2625 -97.6369 31° Northeast 249 287 21,000  Level Houston Center
Tue 02:40:29 AM 30.3189 -97.5886 36° Northeast 250 288 21,000  Level Houston Center
Tue 02:41:29 AM 30.3711 -97.5356 41° Northeast 249 287 21,000 50 Level Houston Center
Tue 02:42:29 AM 30.4200 -97.4742 47° Northeast 254 292 21,100  Climbing Houston Center
Tue 02:43:29 AM 30.4778 -97.4294 34° Northeast 250 288 21,000 -50 Descending Houston Center
Tue 02:44:29 AM 30.5297 -97.3772 41° Northeast 255 293 21,000  Level Houston Center
Tue 02:45:29 AM 30.5814 -97.3206 43° Northeast 254 292 21,000 50 Level Houston Center
Tue 02:46:29 AM 30.6328 -97.2658 42° Northeast 250 288 21,100 50 Climbing Houston Center
Tue 02:47:29 AM 30.6767 -97.2206 42° Northeast 251 289 21,100  Level Houston Center
Tue 02:48:30 AM 30.7275 -97.1642 44° Northeast 252 290 21,100 -50 Level Houston Center
Tue 02:49:30 AM 30.7794 -97.1100 42° Northeast 250 288 21,000 -50 Descending Houston Center
Tue 02:50:30 AM 30.8283 -97.0500 46° Northeast 254 292 21,000  Level Houston Center
Tue 02:51:30 AM 30.8811 -96.9975 40° Northeast 250 288 21,000  Level Houston Center
Tue 02:52:30 AM 30.9342 -96.9453 40° Northeast 250 288 21,000  Level Houston Center
Tue 02:53:30 AM 30.9886 -96.8958 38° Northeast 247 284 21,000  Level Houston Center
Tue 02:54:30 AM 31.0378 -96.8392 45° Northeast 249 287 21,000  Level Houston Center
Tue 02:55:30 AM 31.0875 -96.7819 45° Northeast 249 287 21,000  Level Houston Center
Tue 02:56:30 AM 31.1361 -96.7247 45° Northeast 247 284 21,000  Level Houston Center
Tue 02:57:31 AM 31.1836 -96.6639 48° Northeast 249 287 21,000  Level Houston Center
Tue 02:58:31 AM 31.2367 -96.6111 40° Northeast 246 283 21,000  Level Houston Center
Tue 02:59:31 AM 31.2867 -96.5533 45° Northeast 249 287 21,000  Level Houston Center
Tue 03:00:31 AM 31.3411 -96.5050 37° Northeast 244 281 21,000  Level Houston Center
Tue 03:01:31 AM 31.3933 -96.4503 42° Northeast 250 288 21,000  Level Houston Center
Tue 03:02:31 AM 31.4494 -96.4022 36° Northeast 248 285 21,000  Level Houston Center
Tue 03:03:31 AM 31.5028 -96.3478 41° Northeast 251 289 21,000  Level Houston Center
Tue 03:04:31 AM 31.5581 -96.2947 39° Northeast 254 292 21,000  Level Houston Center
Tue 03:05:31 AM 31.6083 -96.2358 45° Northeast 252 290 21,000 55 Level Houston Center
Tue 03:06:20 AM 31.6542 -96.1906 40° Northeast 247 284 21,100  Climbing Fort Worth Center
Tue 03:07:20 AM 31.7058 -96.1361 42° Northeast 247 284 21,000 -100 Descending Fort Worth Center
Tue 03:08:20 AM 31.7553 -96.0769 45° Northeast 247 284 20,900  Descending Fort Worth Center
Tue 03:09:20 AM 31.8047 -96.0150 47° Northeast 241 277 21,000 50 Climbing Fort Worth Center
Tue 03:10:20 AM 31.8458 -95.9631 47° Northeast 246 283 21,000  Level Fort Worth Center
Tue 03:11:20 AM 31.8953 -95.8964 49° Northeast 246 283 21,000 50 Level Fort Worth Center
Tue 03:12:20 AM 31.9386 -95.8492 43° Northeast 246 283 21,100 50 Climbing Fort Worth Center
Tue 03:13:20 AM 31.9900 -95.7844 47° Northeast 246 283 21,100 -50 Level Fort Worth Center
Tue 03:14:20 AM 32.0392 -95.7247 46° Northeast 246 283 21,000 -50 Descending Fort Worth Center
Tue 03:15:20 AM 32.0969 -95.6625 42° Northeast 254 292 21,000  Level Fort Worth Center
Tue 03:16:20 AM 32.1461 -95.6125 41° Northeast 254 292 21,000  Level Fort Worth Center
Tue 03:17:20 AM 32.1997 -95.5572 41° Northeast 254 292 21,000  Level Fort Worth Center
Tue 03:18:20 AM 32.2531 -95.5022 41° Northeast 254 292 21,000  Level Fort Worth Center
Tue 03:19:20 AM 32.3067 -95.4444 42° Northeast 249 287 21,000 50 Level Fort Worth Center
Tue 03:20:20 AM 32.3600 -95.3869 42° Northeast 254 292 21,100  Climbing Fort Worth Center
Tue 03:21:20 AM 32.4069 -95.3242 48° Northeast 254 292 21,000 -50 Descending Fort Worth Center
Tue 03:22:20 AM 32.4581 -95.2639 45° Northeast 254 292 21,000 50 Level Fort Worth Center
Tue 03:23:20 AM 32.5111 -95.1986 46° Northeast 254 292 21,100  Climbing Fort Worth Center
Tue 03:24:20 AM 32.5622 -95.1358 46° Northeast 254 292 21,000 -50 Descending Fort Worth Center
Tue 03:25:20 AM 32.6156 -95.0778 38° Northeast 249 287 21,000 -50 Level Fort Worth Center
Tue 03:26:00 AM 32.6569 -95.0479 38° Northeast  Level FlightAware Approximate
Tue 03:26:20 AM 32.6708 -95.0194 42° Northeast 254 292 20,900  Level Fort Worth Center
Tue 03:27:20 AM 32.7136 -94.9642 47° Northeast 254 292 20,900 -100 Level Fort Worth Center
Tue 03:28:20 AM 32.7625 -94.9033 46° Northeast 254 292 20,700 50 Descending Fort Worth Center
Tue 03:29:20 AM 32.8133 -94.8428 45° Northeast 249 287 21,000 150 Climbing Fort Worth Center
Tue 03:30:20 AM 32.8603 -94.7869 45° Northeast 249 287 21,000  Level Fort Worth Center
Tue 03:31:20 AM 32.9069 -94.7261 48° Northeast 244 281 21,000 50 Level Fort Worth Center
Tue 03:32:20 AM 32.9539 -94.6678 46° Northeast 244 281 21,100  Climbing Fort Worth Center
Tue 03:33:20 AM 33.0006 -94.6069 48° Northeast 249 287 21,000 -50 Descending Fort Worth Center
Tue 03:34:20 AM 33.0492 -94.5508 44° Northeast 249 287 21,000  Level Fort Worth Center
Tue 03:35:20 AM 33.0961 -94.4950 45° Northeast 244 281 21,000  Level Fort Worth Center
Tue 03:36:20 AM 33.1428 -94.4411 44° Northeast 239 275 21,000  Level Fort Worth Center
Tue 03:37:20 AM 33.1892 -94.3803 48° Northeast 234 269 21,000  Level Fort Worth Center
Tue 03:38:20 AM 33.2381 -94.3264 43° Northeast 234 269 21,000  Level Fort Worth Center
Tue 03:39:20 AM 33.2825 -94.2678 48° Northeast 234 269 21,000 50 Level Fort Worth Center
Tue 03:40:20 AM 33.3292 -94.2139 44° Northeast 234 269 21,100  Climbing Fort Worth Center
Tue 03:41:20 AM 33.3736 -94.1525 49° Northeast 234 269 21,000 -50 Descending Fort Worth Center
Tue 03:42:20 AM 33.4200 -94.0936 47° Northeast 234 269 21,000  Level Fort Worth Center
Tue 03:43:20 AM 33.4686 -94.0369 44° Northeast 234 269 21,000  Level Fort Worth Center
Tue 03:44:20 AM 33.5172 -93.9828 43° Northeast 234 269 21,000  Level Fort Worth Center
Tue 03:45:20 AM 33.5614 -93.9211 49° Northeast 234 269 21,000  Level Fort Worth Center
Tue 03:46:20 AM 33.6117 -93.8569 47° Northeast 234 269 21,000  Level Fort Worth Center
Tue 03:47:20 AM 33.6561 -93.8000 47° Northeast 234 269 21,000  Level Fort Worth Center
Tue 03:48:20 AM 33.7022 -93.7408 47° Northeast 234 269 21,000  Level Fort Worth Center
Tue 03:49:20 AM 33.7486 -93.6814 47° Northeast 234 269 21,000  Level Fort Worth Center
Tue 03:50:20 AM 33.7947 -93.6219 47° Northeast 234 269 21,000  Level Fort Worth Center
Tue 03:51:20 AM 33.8408 -93.5625 47° Northeast 229 264 21,000  Level Fort Worth Center
Tue 03:52:46 AM 33.9039 -93.4906 43° Northeast 223 257 21,000  Level Memphis Center
Tue 03:53:46 AM 33.9492 -93.4297 48° Northeast 228 262 21,000  Level Memphis Center
Tue 03:54:46 AM 33.9947 -93.3661 49° Northeast 238 274 21,000  Level Memphis Center
Tue 03:55:46 AM 34.0461 -93.3053 44° Northeast 238 274 21,000  Level Memphis Center
Tue 03:56:46 AM 34.0914 -93.2467 47° Northeast 238 274 21,000  Level Memphis Center
Tue 03:57:46 AM 34.1347 -93.1803 52° Northeast 238 274 21,000  Level Memphis Center
Tue 03:58:46 AM 34.1858 -93.1317 38° Northeast 238 274 21,000 -50 Level Memphis Center
Tue 03:59:46 AM 34.2350 -93.0781 42° Northeast 233 268 20,900  Descending Memphis Center
Tue 04:00:46 AM 34.2861 -93.0294 38° Northeast 233 268 21,000 50 Climbing Memphis Center
Tue 04:01:46 AM 34.3331 -92.9781 45° Northeast 238 274 21,000  Level Memphis Center
Tue 04:02:00 AM 34.3481 -92.9558 44° Northeast  Level FlightAware Approximate
Tue 04:02:46 AM 34.3842 -92.9267 40° Northeast 238 274 21,000  Level Memphis Center
Tue 04:03:46 AM 34.4353 -92.8753 40° Northeast 238 274 21,100  Climbing Memphis Center
Tue 04:04:46 AM 34.4867 -92.8164 43° Northeast 238 274 21,000  Descending Memphis Center
Tue 04:05:46 AM 34.5356 -92.7647 41° Northeast 238 274 21,100  Climbing Memphis Center
Tue 04:06:46 AM 34.5867 -92.7108 41° Northeast 238 274 21,000  Descending Memphis Center
Tue 04:07:46 AM 34.6378 -92.6567 41° Northeast 238 274 21,100 50 Climbing Memphis Center
Tue 04:08:46 AM 34.6889 -92.6025 41° Northeast 238 274 21,100 -50 Level Memphis Center
Tue 04:09:00 AM 34.6988 -92.5361 44° Northeast  Level FlightAware Approximate
Tue 04:09:46 AM 34.7381 -92.5431 45° Northeast 238 274 21,000  Level Memphis Center
Tue 04:10:00 AM 34.7488 -92.4758 45° Northeast  Level FlightAware Approximate
Tue 04:10:46 AM 34.7933 -92.4814 42° Northeast 238 274 21,100  Level Memphis Center
Tue 04:11:00 AM 34.7988 -92.4155 45° Northeast  Level FlightAware Approximate
Tue 04:11:46 AM 34.8422 -92.4269 42° Northeast 244 281 21,100  Level Memphis Center
Tue 04:12:46 AM 34.8953 -92.3650 44° Northeast 244 281 21,000 -100 Descending Memphis Center
Tue 04:13:46 AM 34.9483 -92.3131 39° Northeast 244 281 20,900  Descending Memphis Center
Tue 04:14:46 AM 35.0033 -92.2558 40° Northeast 244 281 21,000 50 Climbing Memphis Center
Tue 04:15:46 AM 35.0544 -92.1936 45° Northeast 244 281 21,000  Level Memphis Center
Tue 04:16:46 AM 35.1094 -92.1389 39° Northeast 249 287 21,000  Level Memphis Center
Tue 04:17:46 AM 35.1625 -92.0842 40° Northeast 249 287 21,000 25 Level Memphis Center
Tue 04:19:00 AM 35.2225 -92.0074 46° Northeast  Level FlightAware Approximate
Tue 04:20:46 AM 35.3294 -91.9197 46° Northeast 249 287 21,100  Level Memphis Center
Tue 04:21:46 AM 35.3822 -91.8647 40° Northeast 249 287 21,000 -50 Descending Memphis Center
Tue 04:22:46 AM 35.4411 -91.8122 36° Northeast 255 293 21,000  Level Memphis Center
Tue 04:23:46 AM 35.4939 -91.7569 40° Northeast 250 288 21,000 50 Level Memphis Center
Tue 04:24:46 AM 35.5508 -91.7044 37° Northeast 250 288 21,100  Climbing Memphis Center
Tue 04:25:46 AM 35.6056 -91.6467 41° Northeast 250 288 21,000 -50 Descending Memphis Center
Tue 04:26:00 AM 35.5619 -91.5696 46° Northeast  Level FlightAware Approximate
Tue 04:26:46 AM 35.6647 -91.5939 36° Northeast 250 288 21,000  Level Memphis Center
Tue 04:27:46 AM 35.7172 -91.5408 39° Northeast 255 293 21,000  Level Memphis Center
Tue 04:28:46 AM 35.7761 -91.4853 37° Northeast 255 293 21,000  Level Memphis Center
Tue 04:29:46 AM 35.8372 -91.4325 35° Northeast 255 293 21,000  Level Memphis Center
Tue 04:30:46 AM 35.8814 -91.3792 44° Northeast 255 293 21,000  Level Memphis Center
Tue 04:31:46 AM 35.9400 -91.3261 36° Northeast 255 293 21,000  Level Memphis Center
Tue 04:32:46 AM 35.9947 -91.2678 41° Northeast 255 293 21,000  Level Memphis Center
Tue 04:33:46 AM 36.0556 -91.2169 34° Northeast 255 293 21,000  Level Memphis Center
Tue 04:34:46 AM 36.1144 -91.1586 39° Northeast 261 300 21,000  Level Memphis Center
Tue 04:35:46 AM 36.1731 -91.1078 35° Northeast 261 300 21,000  Level Memphis Center
Tue 04:36:46 AM 36.2339 -91.0517 37° Northeast 261 300 21,000  Level Memphis Center
Tue 04:37:46 AM 36.2864 -90.9903 43° Northeast 261 300 21,000 50 Level Memphis Center
Tue 04:38:46 AM 36.3367 -90.9211 48° Northeast 261 300 21,100  Climbing Memphis Center
Tue 04:39:46 AM 36.3869 -90.8494 49° Northeast 261 300 21,000  Descending Memphis Center
Tue 04:40:46 AM 36.4372 -90.7850 46° Northeast 267 307 21,100 50 Climbing Memphis Center
Tue 04:41:46 AM 36.4917 -90.7158 46° Northeast 267 307 21,100 -50 Level Memphis Center
Tue 04:42:46 AM 36.5397 -90.6514 47° Northeast 262 302 21,000 -50 Descending Memphis Center
Tue 04:43:46 AM 36.5900 -90.5817 48° Northeast 262 302 21,000 50 Level Memphis Center
Tue 04:44:46 AM 36.6381 -90.5094 50° Northeast 262 302 21,100 50 Climbing Memphis Center
Tue 04:45:46 AM 36.6858 -90.4397 49° Northeast 262 302 21,100 -50 Level Memphis Center
Tue 04:46:46 AM 36.7422 -90.3594 49° Northeast 262 302 21,000 -50 Descending Memphis Center
Tue 04:47:46 AM 36.7903 -90.2817 52° Northeast 268 308 21,000  Level Memphis Center
Tue 04:48:46 AM 36.8422 -90.2117 47° Northeast 273 314 21,000  Level Memphis Center
Tue 04:49:46 AM 36.8922 -90.1389 49° Northeast 273 314 21,000  Level Memphis Center
Tue 04:50:46 AM 36.9378 -90.0611 54° Northeast 273 314 21,000 -50 Level Memphis Center
Tue 04:51:46 AM 36.9897 -89.9881 48° Northeast 278 320 20,900  Descending Memphis Center
Tue 04:52:46 AM 37.0394 -89.9150 50° Northeast 278 320 21,000 50 Climbing Memphis Center
Tue 04:53:46 AM 37.0869 -89.8369 53° Northeast 278 320 21,000 50 Level Memphis Center
Tue 04:54:46 AM 37.1367 -89.7611 51° Northeast 278 320 21,100 57 Climbing Memphis Center
Tue 04:55:31 AM 37.1639 -89.7136 54° Northeast 278 320 21,100  Level Kansas City Center
Tue 04:56:31 AM 37.2139 -89.6386 50° Northeast 279 321 21,100  Level Kansas City Center
Tue 04:57:32 AM 37.2667 -89.5669 47° Northeast 280 322 21,100  Level Kansas City Center
Tue 04:58:32 AM 37.3178 -89.4928 49° Northeast 278 320 21,100  Level Kansas City Center
Tue 04:59:33 AM 37.3683 -89.4172 50° Northeast 280 322 21,100 -50 Level Kansas City Center
Tue 05:00:33 AM 37.4283 -89.3272 50° Northeast 280 322 21,000 -50 Descending Kansas City Center
Tue 05:01:34 AM 37.4769 -89.2494 52° Northeast 279 321 21,000  Level Kansas City Center
Tue 05:02:34 AM 37.5264 -89.1742 50° Northeast 280 322 21,000 50 Level Kansas City Center
Tue 05:03:35 AM 37.5781 -89.1019 48° Northeast 279 321 21,100  Climbing Kansas City Center
Tue 05:04:35 AM 37.6261 -89.0264 51° Northeast 277 319 21,000  Descending Kansas City Center
Tue 05:05:36 AM 37.6722 -88.9472 54° Northeast 277 319 21,100  Climbing Kansas City Center
Tue 05:06:36 AM 37.7214 -88.8694 51° Northeast 280 322 21,000 -50 Descending Kansas City Center
Tue 05:07:37 AM 37.7708 -88.7947 50° Northeast 279 321 21,000 50 Level Kansas City Center
Tue 05:08:37 AM 37.8203 -88.7214 50° Northeast 283 326 21,100 50 Climbing Kansas City Center
Tue 05:09:38 AM 37.8614 -88.6475 55° Northeast 281 323 21,100 -50 Level Kansas City Center
Tue 05:10:38 AM 37.9117 -88.5700 51° Northeast 282 325 21,000 -50 Descending Kansas City Center
Tue 05:11:39 AM 37.9619 -88.4956 49° Northeast 279 321 21,000  Level Kansas City Center
Tue 05:12:39 AM 38.0150 -88.4239 47° Northeast 277 319 21,000  Level Kansas City Center
Tue 05:13:39 AM 38.0647 -88.3447 51° Northeast 283 326 21,000  Level Indianapolis Center
Tue 05:14:40 AM 38.1164 -88.2703 49° Northeast 281 323 21,000 49 Level Indianapolis Center
Tue 05:15:41 AM 38.1692 -88.1967 48° Northeast 281 323 21,100 50 Climbing Kansas City Center
Tue 05:16:41 AM 38.2244 -88.1319 43° Northeast 272 313 21,100 -50 Level Kansas City Center
Tue 05:17:42 AM 38.2803 -88.0664 43° Northeast 273 314 21,000 -49 Descending Indianapolis Center
Tue 05:18:43 AM 38.3339 -87.9956 46° Northeast 275 316 21,000  Level Indianapolis Center
Tue 05:19:44 AM 38.3856 -87.9225 48° Northeast 275 316 21,000  Level Indianapolis Center
Tue 05:20:44 AM 38.4392 -87.8536 45° Northeast 273 314 21,000 50 Level Indianapolis Center
Tue 05:21:45 AM 38.4911 -87.7806 48° Northeast 275 316 21,100  Climbing Indianapolis Center
Tue 05:22:46 AM 38.5511 -87.6939 48° Northeast 272 313 21,000  Descending Indianapolis Center
Tue 05:23:47 AM 38.6025 -87.6219 48° Northeast 273 314 21,100 50 Climbing Indianapolis Center
Tue 05:24:47 AM 38.6556 -87.5542 45° Northeast 269 310 21,100  Level Indianapolis Center
Tue 05:25:48 AM 38.7097 -87.4869 44° Northeast 268 308 21,100 -49 Level Indianapolis Center
Tue 05:26:49 AM 38.7653 -87.4211 43° Northeast 269 310 21,000 -50 Descending Indianapolis Center
Tue 05:27:49 AM 38.8189 -87.3567 43° Northeast 265 305 21,000  Level Indianapolis Center
Tue 05:28:50 AM 38.8719 -87.2867 46° Northeast 270 311 21,000  Level Indianapolis Center
Tue 05:29:51 AM 38.9272 -87.2231 42° Northeast 266 306 21,000 50 Level Indianapolis Center
Tue 05:30:51 AM 38.9808 -87.1592 43° Northeast 264 304 21,100  Climbing Indianapolis Center
Tue 05:31:52 AM 39.0350 -87.0944 43° Northeast 262 302 21,000 -49 Descending Indianapolis Center
Tue 05:32:53 AM 39.0894 -87.0275 44° Northeast 267 307 21,000 -50 Level Indianapolis Center
Tue 05:33:53 AM 39.1344 -86.9706 44° Northeast 266 306 20,900  Descending Indianapolis Center
Tue 05:34:54 AM 39.1867 -86.9011 46° Northeast 268 308 21,000 49 Climbing Indianapolis Center
Tue 05:35:55 AM 39.2389 -86.8356 44° Northeast 264 304 21,000  Level Indianapolis Center
Tue 05:36:55 AM 39.3047 -86.7603 41° Northeast 264 304 21,000 -50 Level Indianapolis Center
Tue 05:37:56 AM 39.3581 -86.6967 43° Northeast 263 303 20,900 -50 Descending Indianapolis Center
Tue 05:38:56 AM 39.4117 -86.6319 43° Northeast 263 303 20,900 50 Level Indianapolis Center
Tue 05:39:57 AM 39.4658 -86.5675 43° Northeast 265 305 21,000 50 Climbing Indianapolis Center
Tue 05:40:57 AM 39.5203 -86.5083 40° Northeast 260 299 21,000  Level Indianapolis Center
Tue 05:41:58 AM 39.5728 -86.4414 44° Northeast 265 305 21,000  Level Indianapolis Center
Tue 05:42:59 AM 39.6253 -86.3753 44° Northeast 266 306 21,000  Level Indianapolis Center
Tue 05:43:59 AM 39.6803 -86.3142 41° Northeast 265 305 21,000  Level Indianapolis Center
Tue 05:45:00 AM 39.7361 -86.2442 44° Northeast 264 304 21,000  Level Indianapolis Center
Tue 05:46:00 AM 39.7953 -86.1803 40° Northeast 262 302 21,000  Level Indianapolis Center
Tue 05:47:01 AM 39.8478 -86.1153 44° Northeast 262 302 21,000  Level Indianapolis Center
Tue 05:48:01 AM 39.9014 -86.0494 43° Northeast 264 304 21,000  Level Indianapolis Center
Tue 05:49:02 AM 39.9550 -85.9856 42° Northeast 263 303 21,000  Level Indianapolis Center
Tue 05:50:02 AM 40.0081 -85.9217 43° Northeast 261 300 21,000  Level Indianapolis Center
Tue 05:51:03 AM 40.0617 -85.8558 43° Northeast 264 304 21,000  Level Indianapolis Center
Tue 05:52:04 AM 40.1144 -85.7897 44° Northeast 264 304 21,000  Level Indianapolis Center
Tue 05:53:04 AM 40.1717 -85.7328 37° Northeast 259 298 21,000  Level Indianapolis Center
Tue 05:54:05 AM 40.2286 -85.6764 37° Northeast 258 297 21,000  Level Indianapolis Center
Tue 05:55:05 AM 40.2842 -85.6094 43° Northeast 268 308 21,000  Level Indianapolis Center
Tue 05:56:06 AM 40.3381 -85.5497 40° Northeast 257 296 21,000  Level Indianapolis Center
Tue 05:57:09 AM 40.3961 -85.4892 38° Northeast 263 303 21,000  Level Chicago Center
Tue 05:58:09 AM 40.4500 -85.4247 42° Northeast 264 304 21,000  Level Chicago Center
Tue 05:59:10 AM 40.5069 -85.3644 39° Northeast 264 304 21,000  Level Chicago Center
Tue 06:00:11 AM 40.5725 -85.2883 41° Northeast 263 303 21,000  Level Chicago Center
Tue 06:01:12 AM 40.6286 -85.2222 42° Northeast 269 310 21,000  Level Chicago Center
Tue 06:02:11 AM 40.6878 -85.1603 38° Northeast 266 306 21,000  Level Chicago Center
Tue 06:03:12 AM 40.7444 -85.0997 39° Northeast 264 304 21,000  Level Chicago Center
Tue 06:04:12 AM 40.7978 -85.0308 44° Northeast 267 307 21,000 -694 Level Chicago Center
Tue 06:05:13 AM 40.8583 -84.9678 38° Northeast 276 318 19,600 -1,438 Descending Chicago Center
Tue 06:06:13 AM 40.9286 -84.9044 34° Northeast 299 344 18,100 -1,400 Descending Chicago Center
Tue 06:07:13 AM 40.9981 -84.8389 35° Northeast 306 352 16,800 -1,289 Descending Chicago Center
Tue 06:08:14 AM 41.0694 -84.7725 35° Northeast 313 360 15,500 -1,339 Descending Chicago Center
Tue 06:09:14 AM 41.1364 -84.7067 37° Northeast 305 351 14,100 -1,388 Descending Chicago Center
Tue 06:10:15 AM 41.2039 -84.6433 35° Northeast 299 344 12,700 -1,240 Descending Chicago Center
Tue 06:11:15 AM 41.2719 -84.5819 34° Northeast 298 343 11,600 -843 Descending Chicago Center
Tue 06:12:16 AM 41.3339 -84.5142 39° Northeast 292 336 11,000 -843 Descending Chicago Center
Tue 06:13:16 AM 41.3992 -84.4661 29° Northeast 275 316 9,900 -1,250 Descending Chicago Center
Tue 06:14:16 AM 41.4644 -84.4103 33° Northeast 277 319 8,500 -1,488 Descending Chicago Center
Tue 06:15:17 AM 41.5031 -84.3239 59° Northeast 290 334 6,900 -1,636 Descending Chicago Center
Tue 06:16:17 AM 41.5064 -84.2217 87° East 282 325 5,200 -1,636 Descending Chicago Center
Tue 06:17:18 AM 41.5147 -84.1289 83° East 266 306 3,600 -1,475 Descending Chicago Center
Tue 06:18:15 AM 41.5225 -84.0408 83° East 240 276 2,300 -661 Descending Cleveland Center
Tue 06:19:16 AM 41.5336 -83.9794 76° East 208 239 2,300  Level Cleveland Center
Tue 06:21:00 AM 41.5771 -83.8224 70° East  Level FlightAware Approximate
Tue 06:28:00 AM 41.5833 -83.8000 77° East  Level FlightAware Approximate
Tue 06:29:00 AM 41.5337 -83.8703 77° East  Level Estimated
Tue 06:30:00 AM 41.5833 -83.8000 77° East  Level FlightAware Approximate
Tue 06:31:00 AM 41.5337 -83.8703 77° East  Level Estimated
Tue 06:32:00 AM 41.5833 -83.8000 77° East  Level FlightAware Approximate
Tue 06:33:00 AM 41.5337 -83.8703 77° East  Level Estimated
Tue 06:34:00 AM 41.5833 -83.8000 77° East  Level FlightAware Approximate
Tue 06:35:00 AM 41.5337 -83.8703 77° East  Level Estimated
Tue 06:36:00 AM 41.5833 -83.8000 77° East  Level FlightAware Approximate
Tue 06:37:00 AM 41.5337 -83.8703 77° East  Level Estimated

Login

Don't have an account? Register now (free) for customized features, flight alerts, and more!